Time;durP1;ratioP1;P1;durP2;ratioP2;P2;SDS_P1;SDS_P2;PMS_P1;PMS_P2;Temp;Humidity;BMP_temperature;BMP_pressure;BME280_temperature;BME280_humidity;BME280_pressure;Samples;Min_cycle;Max_cycle;Signal;HPM_P1;HPM_P2
2021/01/18 00:01:24;;;;;;;25.47;10.40;;;6.30;99.90;;;;;;4962599;28;20241;-90
2021/01/18 00:03:49;;;;;;;22.23;10.33;;;6.20;99.90;;;;;;4958997;29;20191;-89
2021/01/18 00:06:19;;;;;;;20.53;9.80;;;6.10;99.90;;;;;;4958999;29;20185;-89
2021/01/18 00:08:46;;;;;;;19.23;10.27;;;6.00;99.90;;;;;;4959019;28;20353;-89
2021/01/18 00:11:12;;;;;;;28.10;11.40;;;5.90;99.90;;;;;;4958741;29;20191;-89
2021/01/18 00:13:42;;;;;;;20.33;10.47;;;5.90;99.90;;;;;;4961569;29;20189;-89
2021/01/18 00:16:08;;;;;;;23.13;11.27;;;6.00;99.90;;;;;;4959385;29;20187;-88
2021/01/18 00:18:34;;;;;;;30.00;10.63;;;6.00;99.90;;;;;;4958813;29;20182;-89
2021/01/18 00:21:00;;;;;;;19.77;9.90;;;6.10;99.90;;;;;;4960063;28;20513;-91
2021/01/18 00:23:27;;;;;;;30.60;10.60;;;6.00;99.90;;;;;;4959236;28;20183;-89
2021/01/18 00:25:56;;;;;;;30.07;9.90;;;6.00;99.90;;;;;;4958673;29;20183;-89
2021/01/18 00:28:21;;;;;;;20.70;9.90;;;5.90;99.90;;;;;;4959319;29;20253;-89
2021/01/18 00:30:47;;;;;;;26.27;10.17;;;6.00;99.90;;;;;;4959362;28;20186;-89
2021/01/18 00:33:13;;;;;;;23.07;10.63;;;6.10;99.90;;;;;;4958913;29;20281;-90
2021/01/18 00:35:41;;;;;;;29.80;10.47;;;6.20;99.90;;;;;;4958834;28;20254;-89
2021/01/18 00:38:07;;;;;;;22.57;10.27;;;6.40;99.90;;;;;;4943245;29;20179;-89
2021/01/18 00:40:32;;;;;;;20.37;9.97;;;6.50;99.90;;;;;;4942963;29;20193;-89
2021/01/18 00:43:01;;;;;;;17.00;9.90;;;6.50;99.90;;;;;;4958390;28;20185;-88
2021/01/18 00:45:34;;;;;;;19.50;10.10;;;6.40;99.90;;;;;;4957928;28;20199;-89
2021/01/18 00:47:59;;;;;;;12.03;8.70;;;6.30;99.90;;;;;;4973467;28;20169;-88
2021/01/18 00:50:30;;;;;;;21.60;9.60;;;6.20;99.90;;;;;;4980633;28;20199;-91
2021/01/18 00:53:00;;;;;;;17.70;9.20;;;6.10;99.90;;;;;;4980303;28;20258;-92
2021/01/18 00:55:26;;;;;;;17.30;8.87;;;6.00;99.90;;;;;;4963273;29;20542;-88
2021/01/18 00:57:52;;;;;;;24.57;10.67;;;5.90;99.90;;;;;;4958408;28;20178;-88
2021/01/18 01:00:20;;;;;;;23.73;10.07;;;5.90;99.90;;;;;;4957979;29;20182;-88
2021/01/18 01:02:49;;;;;;;22.67;9.73;;;6.00;99.90;;;;;;4958341;29;20182;-88
2021/01/18 01:05:19;;;;;;;15.50;9.27;;;5.90;99.90;;;;;;4967410;28;20166;-88
2021/01/18 01:07:48;;;;;;;21.07;9.60;;;5.80;99.90;;;;;;4994456;28;20158;-88
2021/01/18 01:10:20;;;;;;;28.83;9.90;;;5.70;99.90;;;;;;4989059;28;20270;-89
2021/01/18 01:12:46;;;;;;;21.17;10.67;;;5.70;99.90;;;;;;4960492;28;20167;-88
2021/01/18 01:15:13;;;;;;;15.10;9.10;;;5.80;99.90;;;;;;4966518;28;20186;-89
2021/01/18 01:17:46;;;;;;;19.63;10.43;;;5.90;99.90;;;;;;4977425;28;20178;-88
2021/01/18 01:20:17;;;;;;;24.27;10.70;;;6.00;99.90;;;;;;4978220;28;20188;-89
2021/01/18 01:22:43;;;;;;;20.03;10.10;;;6.10;99.90;;;;;;4977076;28;20174;-89
2021/01/18 01:25:16;;;;;;;26.20;10.83;;;6.10;99.90;;;;;;4977404;28;20198;-89
2021/01/18 01:27:42;;;;;;;23.60;10.03;;;6.20;99.90;;;;;;4977065;28;20236;-89
2021/01/18 01:30:11;;;;;;;27.27;9.93;;;6.20;99.90;;;;;;4977079;28;20206;-89
2021/01/18 01:32:48;;;;;;;26.43;9.77;;;6.20;99.90;;;;;;4982044;28;20201;-88
2021/01/18 01:35:19;;;;;;;30.67;10.87;;;6.10;99.90;;;;;;4978523;28;20272;-90
2021/01/18 01:37:54;;;;;;;;;;;;;;;;;;;;;
2021/01/18 01:40:21;;;;;;;21.07;9.97;;;6.10;99.90;;;;;;4966153;28;20642;-89
2021/01/18 01:42:47;;;;;;;23.37;10.50;;;6.20;99.90;;;;;;4957095;28;20186;-89
2021/01/18 01:45:15;;;;;;;22.33;10.40;;;6.30;99.90;;;;;;4957427;28;20663;-89
2021/01/18 01:47:44;;;;;;;29.23;10.47;;;6.40;99.90;;;;;;4958656;28;20185;-90
2021/01/18 01:50:15;;;;;;;28.07;10.67;;;6.50;99.90;;;;;;4958504;28;20221;-89
2021/01/18 01:52:58;;;;;;;23.10;10.23;;;6.40;99.90;;;;;;4957647;28;20178;-89
2021/01/18 01:55:28;;;;;;;18.00;9.67;;;6.40;99.90;;;;;;4957126;28;20218;-89
2021/01/18 01:57:54;;;;;;;19.97;9.57;;;6.40;99.90;;;;;;4956762;28;20287;-89
2021/01/18 02:00:22;;;;;;;16.93;9.73;;;6.40;99.90;;;;;;4958284;28;20187;-89
2021/01/18 02:02:50;;;;;;;17.30;10.03;;;6.30;99.90;;;;;;4959298;28;20182;-89
2021/01/18 02:05:15;;;;;;;21.90;10.13;;;6.30;99.90;;;;;;4975755;28;20269;-89
2021/01/18 02:07:42;;;;;;;19.77;10.40;;;6.30;99.90;;;;;;4957350;28;20210;-89
2021/01/18 02:10:09;;;;;;;23.87;10.30;;;6.30;99.90;;;;;;4973573;28;20289;-89
2021/01/18 02:12:35;;;;;;;24.73;10.90;;;6.40;99.90;;;;;;4973945;28;20182;-89
2021/01/18 02:15:11;;;;;;;30.97;10.50;;;6.30;99.90;;;;;;4990371;28;20525;-89
2021/01/18 02:17:47;;;;;;;26.47;10.80;;;6.20;99.90;;;;;;4971895;28;20171;-89
2021/01/18 02:20:43;;;;;;;26.23;10.80;;;6.10;99.90;;;;;;4956573;28;20258;-89
2021/01/18 02:23:43;;;;;;;21.30;10.20;;;6.00;99.90;;;;;;4955170;28;20186;-89
2021/01/18 02:26:15;;;;;;;29.27;11.27;;;5.90;99.90;;;;;;4955949;28;20182;-88
2021/01/18 02:29:04;;;;;;;26.00;9.77;;;5.70;99.90;;;;;;4971361;28;20215;-90
2021/01/18 02:32:05;;;;;;;22.60;11.03;;;5.50;99.90;;;;;;4957864;28;20183;-89
2021/01/18 02:35:08;;;;;;;22.03;10.00;;;5.40;99.90;;;;;;4953571;28;20178;-89
2021/01/18 02:38:10;;;;;;;30.53;9.60;;;5.40;99.90;;;;;;4974280;28;20209;-89
2021/01/18 02:41:11;;;;;;;17.67;9.80;;;5.30;99.90;;;;;;4975526;28;20166;-89
2021/01/18 02:44:03;;;;;;;27.57;10.77;;;5.30;99.90;;;;;;4975045;28;20288;-89
2021/01/18 02:46:30;;;;;;;30.03;10.60;;;5.30;99.90;;;;;;4977825;28;20171;-90
2021/01/18 02:48:57;;;;;;;24.47;10.67;;;5.20;99.90;;;;;;4974188;28;20217;-88
2021/01/18 02:51:26;;;;;;;21.70;10.27;;;5.20;99.90;;;;;;4974032;28;20190;-88
2021/01/18 02:54:02;;;;;;;24.87;10.80;;;5.10;99.90;;;;;;4974196;28;20178;-89
2021/01/18 02:56:31;;;;;;;20.10;10.87;;;5.00;99.90;;;;;;4959261;28;20530;-89
2021/01/18 02:58:59;;;;;;;18.33;9.43;;;5.00;99.90;;;;;;4939638;29;20183;-88
2021/01/18 03:01:24;;;;;;;28.73;11.00;;;5.00;99.90;;;;;;4955300;28;20591;-88
2021/01/18 03:04:04;;;;;;;21.33;10.27;;;4.90;99.90;;;;;;4954983;28;20265;-89
2021/01/18 03:06:48;;;;;;;28.73;10.50;;;4.80;99.90;;;;;;4968902;28;20190;-89
2021/01/18 03:09:23;;;;;;;31.33;11.10;;;4.80;99.90;;;;;;4974375;28;20248;-88
2021/01/18 03:11:51;;;;;;;32.77;10.50;;;4.80;99.90;;;;;;4975771;28;20204;-89
2021/01/18 03:14:30;;;;;;;24.30;9.73;;;4.80;99.90;;;;;;4974670;28;20625;-89
2021/01/18 03:16:58;;;;;;;29.37;10.77;;;4.80;99.90;;;;;;4997812;28;20189;-91
2021/01/18 03:19:35;;;;;;;30.97;10.57;;;4.80;99.90;;;;;;5001341;28;20182;-87
2021/01/18 03:22:01;;;;;;;29.23;10.90;;;4.80;99.90;;;;;;5001756;28;20182;-89
2021/01/18 03:24:29;;;;;;;32.20;11.00;;;4.80;99.90;;;;;;4979881;28;20221;-89
2021/01/18 03:26:55;;;;;;;30.00;10.60;;;4.80;99.90;;;;;;4978123;28;20177;-89
2021/01/18 03:29:21;;;;;;;27.37;10.47;;;4.80;99.90;;;;;;4978290;28;20274;-89
2021/01/18 03:31:49;;;;;;;31.60;10.60;;;4.80;99.90;;;;;;4978949;28;20192;-89
2021/01/18 03:34:15;;;;;;;23.73;10.57;;;4.70;99.90;;;;;;4992567;28;20166;-92
2021/01/18 03:36:40;;;;;;;16.73;10.17;;;4.70;99.90;;;;;;4985737;28;20186;-91
2021/01/18 03:39:06;;;;;;;25.03;10.83;;;4.70;99.90;;;;;;4980017;28;20214;-89
2021/01/18 03:41:34;;;;;;;26.53;10.63;;;4.70;99.90;;;;;;4959780;28;20183;-88
2021/01/18 03:44:00;;;;;;;34.10;10.20;;;4.60;99.90;;;;;;4943747;29;20202;-89
2021/01/18 03:46:29;;;;;;;24.00;10.13;;;4.60;99.90;;;;;;4959574;28;20273;-88
2021/01/18 03:48:57;;;;;;;25.10;10.13;;;4.50;99.90;;;;;;4960957;28;20254;-89
2021/01/18 03:51:29;;;;;;;23.97;9.83;;;4.50;99.90;;;;;;4962190;28;20180;-89
2021/01/18 03:53:56;;;;;;;28.97;10.87;;;4.50;99.90;;;;;;4959179;28;20630;-89
2021/01/18 03:56:29;;;;;;;29.80;10.90;;;4.60;99.90;;;;;;4975454;28;20210;-88
2021/01/18 03:58:54;;;;;;;23.40;10.60;;;4.60;99.90;;;;;;4978982;28;20268;-89
2021/01/18 04:06:44;;;;;;;20.20;10.23;;;4.40;99.90;;;;;;5328767;23;20236;-89
2021/01/18 04:09:09;;;;;;;27.53;9.77;;;4.30;99.90;;;;;;4979562;28;20311;-89
2021/01/18 04:11:35;;;;;;;20.30;10.00;;;4.30;99.90;;;;;;4979687;28;20213;-88
2021/01/18 04:14:03;;;;;;;26.97;10.23;;;4.20;99.90;;;;;;4979484;28;20181;-89
2021/01/18 04:16:29;;;;;;;29.70;9.87;;;4.20;99.90;;;;;;4979121;28;20196;-87
2021/01/18 04:18:54;;;;;;;22.53;9.97;;;4.20;99.90;;;;;;4979738;28;20276;-88
2021/01/18 04:21:23;;;;;;;23.53;10.77;;;4.20;99.90;;;;;;4963692;28;20701;-88
2021/01/18 04:23:48;;;;;;;33.00;10.97;;;4.10;99.90;;;;;;4999100;28;20256;-90
2021/01/18 04:26:19;;;;;;;34.67;10.67;;;4.10;99.90;;;;;;5003040;28;20165;-89
2021/01/18 04:28:45;;;;;;;36.67;10.53;;;4.10;99.90;;;;;;5002782;28;20199;-93
2021/01/18 04:31:13;;;;;;;27.90;11.13;;;4.10;99.90;;;;;;4984712;28;20183;-89
2021/01/18 04:33:38;;;;;;;22.77;10.70;;;4.20;99.90;;;;;;4979341;28;20185;-88
2021/01/18 04:36:04;;;;;;;31.97;11.23;;;4.20;99.90;;;;;;4979308;28;20276;-88
2021/01/18 04:38:35;;;;;;;27.47;11.60;;;4.20;99.90;;;;;;4979293;28;20201;-89
2021/01/18 04:41:01;;;;;;;19.53;9.97;;;4.20;99.90;;;;;;5008899;28;20177;-90
2021/01/18 04:43:30;;;;;;;25.47;10.93;;;4.10;99.90;;;;;;5003320;28;20185;-91
2021/01/18 04:45:59;;;;;;;32.70;10.63;;;4.10;99.90;;;;;;5002545;28;20172;-89
2021/01/18 04:48:27;;;;;;;29.17;11.40;;;4.10;99.90;;;;;;4979586;28;20177;-89
2021/01/18 04:50:58;;;;;;;26.27;11.33;;;4.10;99.90;;;;;;4979084;28;20276;-88
2021/01/18 04:53:29;;;;;;;28.93;11.93;;;4.10;99.90;;;;;;4979153;28;20193;-88
2021/01/18 04:56:15;;;;;;;30.93;11.37;;;4.10;99.90;;;;;;4996439;28;20241;-88
2021/01/18 04:58:46;;;;;;;32.73;11.70;;;4.10;99.90;;;;;;4978985;28;20177;-88
2021/01/18 05:01:17;;;;;;;29.37;11.97;;;4.10;99.90;;;;;;4978846;28;20324;-88
2021/01/18 05:03:55;;;;;;;24.03;10.53;;;4.10;99.90;;;;;;4996643;28;20174;-88
2021/01/18 05:06:30;;;;;;;28.27;10.93;;;4.00;99.90;;;;;;4996802;28;20614;-88
2021/01/18 05:09:18;;;;;;;25.67;11.10;;;4.00;99.90;;;;;;4978814;28;20213;-88
2021/01/18 05:11:48;;;;;;;32.40;12.03;;;3.90;99.90;;;;;;4980375;28;20189;-88
2021/01/18 05:14:17;;;;;;;28.83;10.87;;;4.00;99.90;;;;;;4981139;28;20196;-89
2021/01/18 05:16:55;;;;;;;29.13;11.33;;;4.00;99.90;;;;;;4978814;28;20185;-88
2021/01/18 05:19:23;;;;;;;33.37;11.77;;;4.00;99.90;;;;;;4996182;28;20188;-88
2021/01/18 05:21:51;;;;;;;47.70;12.07;;;4.00;99.90;;;;;;4979473;28;20181;-89
2021/01/18 05:24:18;;;;;;;40.43;11.13;;;4.00;99.90;;;;;;4979181;28;20209;-89
2021/01/18 05:27:00;;;;;;;35.73;10.97;;;4.10;99.90;;;;;;4979210;28;20232;-88
2021/01/18 05:29:33;;;;;;;25.20;9.87;;;4.00;99.90;;;;;;4979224;28;20585;-88
2021/01/18 05:31:59;;;;;;;37.87;10.83;;;4.00;99.90;;;;;;4979650;28;20185;-88
2021/01/18 05:34:29;;;;;;;31.10;10.27;;;4.00;99.90;;;;;;4979423;28;20182;-89
2021/01/18 05:36:55;;;;;;;29.77;9.27;;;3.90;99.90;;;;;;4979006;28;20181;-88
2021/01/18 05:39:22;;;;;;;30.70;10.77;;;4.00;99.90;;;;;;4978122;28;20185;-88
2021/01/18 05:41:57;;;;;;;34.47;9.87;;;4.00;99.90;;;;;;4996045;28;20180;-88
2021/01/18 05:44:33;;;;;;;33.93;10.93;;;4.00;99.90;;;;;;4980111;28;20180;-88
2021/01/18 05:47:13;;;;;;;27.83;10.90;;;4.00;99.90;;;;;;4963464;28;20189;-88
2021/01/18 05:49:44;;;;;;;28.47;9.63;;;4.00;99.90;;;;;;4981464;28;20247;-88
2021/01/18 05:52:25;;;;;;;36.83;10.80;;;4.10;99.90;;;;;;4978893;28;20696;-88
2021/01/18 05:55:18;;;;;;;19.57;9.63;;;4.10;99.90;;;;;;4979739;28;20649;-89
2021/01/18 05:57:49;;;;;;;25.40;10.30;;;4.20;99.90;;;;;;4978845;28;20169;-88
2021/01/18 06:00:30;;;;;;;23.27;9.10;;;4.30;99.90;;;;;;4963277;28;20253;-88
2021/01/18 06:02:57;;;;;;;28.07;9.67;;;4.30;99.90;;;;;;4980022;28;20626;-88
2021/01/18 06:05:28;;;;;;;34.10;8.93;;;4.30;99.90;;;;;;4979745;28;20177;-88
2021/01/18 06:08:06;;;;;;;25.27;10.03;;;4.30;99.90;;;;;;4979258;28;20196;-88
2021/01/18 06:10:32;;;;;;;27.73;8.93;;;4.20;99.90;;;;;;4979403;28;20205;-88
2021/01/18 06:12:58;;;;;;;29.50;9.57;;;4.20;99.90;;;;;;4979578;28;20177;-88
2021/01/18 06:15:26;;;;;;;24.43;9.37;;;4.20;99.90;;;;;;4994917;28;20534;-88
2021/01/18 06:17:57;;;;;;;23.80;9.63;;;4.20;99.90;;;;;;4978030;28;20180;-88
2021/01/18 06:20:27;;;;;;;23.60;9.33;;;4.20;99.90;;;;;;4978039;28;20177;-88
2021/01/18 06:22:54;;;;;;;25.43;9.77;;;4.20;99.90;;;;;;4978147;28;20217;-88
2021/01/18 06:25:22;;;;;;;25.57;10.27;;;4.30;99.90;;;;;;4978249;28;20539;-88
2021/01/18 06:27:48;;;;;;;35.53;9.40;;;4.20;99.90;;;;;;4995394;28;20185;-88
2021/01/18 06:30:19;;;;;;;22.97;10.10;;;4.20;99.90;;;;;;4978047;28;20209;-89
2021/01/18 06:32:48;;;;;;;21.47;9.70;;;4.10;99.90;;;;;;4977688;28;20660;-88
2021/01/18 06:35:30;;;;;;;32.17;10.07;;;4.00;99.90;;;;;;4977919;28;20181;-89
2021/01/18 06:38:04;;;;;;;27.10;9.40;;;4.00;99.90;;;;;;4995348;28;20669;-88
2021/01/18 06:40:38;;;;;;;23.97;9.57;;;4.00;99.90;;;;;;4977571;28;20176;-87
2021/01/18 06:43:05;;;;;;;24.07;9.60;;;4.00;99.90;;;;;;4995000;28;20173;-87
2021/01/18 06:45:40;;;;;;;36.13;11.00;;;3.90;99.90;;;;;;4994616;28;20174;-88
2021/01/18 06:48:08;;;;;;;21.47;9.93;;;3.90;99.90;;;;;;4978079;28;20173;-88
2021/01/18 06:50:36;;;;;;;28.30;9.87;;;4.00;99.90;;;;;;4979369;28;20209;-88
2021/01/18 06:53:23;;;;;;;21.03;9.20;;;4.00;99.90;;;;;;5014481;28;20301;-89
2021/01/18 06:56:07;;;;;;;33.43;9.97;;;4.10;99.90;;;;;;5005055;28;20177;-89
2021/01/18 06:58:55;;;;;;;29.23;9.80;;;4.00;99.90;;;;;;4998423;28;20193;-88
2021/01/18 07:01:33;;;;;;;21.63;8.93;;;4.00;99.90;;;;;;5001269;28;20172;-88
2021/01/18 07:04:15;;;;;;;25.80;9.07;;;4.10;99.90;;;;;;5021591;28;20189;-88
2021/01/18 07:06:45;;;;;;;23.07;9.53;;;4.10;99.90;;;;;;5004383;28;20203;-88
2021/01/18 07:09:16;;;;;;;24.87;9.30;;;4.10;99.90;;;;;;5004486;28;20204;-88
2021/01/18 07:11:42;;;;;;;19.60;9.13;;;4.10;99.90;;;;;;5004892;28;20182;-90
2021/01/18 07:14:15;;;;;;;23.67;9.70;;;4.10;99.90;;;;;;5004036;28;20197;-89
2021/01/18 07:16:44;;;;;;;32.43;9.87;;;4.00;99.90;;;;;;5003063;28;20184;-88
2021/01/18 07:19:10;;;;;;;27.03;9.37;;;4.10;99.90;;;;;;4973705;28;20182;-88
2021/01/18 07:22:06;;;;;;;27.03;9.83;;;4.10;99.90;;;;;;4980704;28;20177;-88
2021/01/18 07:24:40;;;;;;;27.37;8.77;;;4.20;99.90;;;;;;4998347;28;20205;-88
2021/01/18 07:27:12;;;;;;;28.20;10.90;;;4.20;99.90;;;;;;4980811;28;20181;-88
2021/01/18 07:29:40;;;;;;;38.73;11.17;;;4.20;99.90;;;;;;4980678;28;20580;-87
2021/01/18 07:32:09;;;;;;;27.60;10.80;;;4.10;99.90;;;;;;4998109;28;20268;-88
2021/01/18 07:34:38;;;;;;;26.37;10.23;;;4.10;99.90;;;;;;4980529;28;20289;-88
2021/01/18 07:37:09;;;;;;;35.43;10.80;;;4.10;99.90;;;;;;4980214;28;20534;-88
2021/01/18 07:39:39;;;;;;;25.67;9.60;;;4.10;99.90;;;;;;4998257;28;20205;-88
2021/01/18 07:42:34;;;;;;;30.00;10.20;;;4.10;99.90;;;;;;4980512;28;20177;-88
2021/01/18 07:45:14;;;;;;;32.23;9.80;;;4.10;99.90;;;;;;4979820;28;20235;-88
2021/01/18 07:47:57;;;;;;;18.17;8.67;;;4.20;99.90;;;;;;4980126;28;20275;-88
2021/01/18 07:50:36;;;;;;;18.33;8.43;;;4.20;99.90;;;;;;4997175;28;20215;-87
2021/01/18 07:53:08;;;;;;;26.57;9.40;;;4.20;99.90;;;;;;4997456;28;20229;-87
2021/01/18 07:55:35;;;;;;;24.07;9.03;;;4.20;99.90;;;;;;4979866;28;20178;-87
2021/01/18 07:58:15;;;;;;;25.23;9.20;;;4.30;99.90;;;;;;4980270;28;20188;-88
2021/01/18 08:00:42;;;;;;;31.23;8.73;;;4.40;99.90;;;;;;4980243;28;20606;-89
2021/01/18 08:03:07;;;;;;;26.77;9.37;;;4.40;99.90;;;;;;4978864;28;20185;-87
2021/01/18 08:05:34;;;;;;;24.53;9.27;;;4.50;99.90;;;;;;4980030;28;20186;-88
2021/01/18 08:08:18;;;;;;;26.10;9.23;;;4.60;99.90;;;;;;4979686;28;20527;-87
2021/01/18 08:11:02;;;;;;;21.63;8.87;;;4.60;99.90;;;;;;4979599;28;20197;-87
2021/01/18 08:13:43;;;;;;;35.83;9.37;;;4.60;99.90;;;;;;4979346;28;20182;-87
2021/01/18 08:16:13;;;;;;;32.03;8.90;;;4.60;99.90;;;;;;4960596;28;20216;-88
2021/01/18 08:19:16;;;;;;;36.27;10.13;;;4.70;99.90;;;;;;4960369;28;20186;-87
2021/01/18 08:21:44;;;;;;;33.55;11.00;;;4.80;99.90;;;;;;4959726;28;20430;-87
2021/01/18 08:24:26;;;;;;;31.60;10.88;;;4.70;99.90;;;;;;4975988;28;20447;-87
2021/01/18 08:27:05;;;;;;;31.60;11.13;;;4.80;99.90;;;;;;4976458;28;20501;-87
2021/01/18 08:29:51;;;;;;;25.60;8.30;;;5.00;99.90;;;;;;4976109;28;20209;-88
2021/01/18 08:32:23;;;;;;;21.37;6.73;;;5.00;99.90;;;;;;4977082;28;20167;-88
2021/01/18 08:34:54;;;;;;;20.37;7.13;;;5.00;99.90;;;;;;4959381;28;20639;-88
2021/01/18 08:37:21;;;;;;;21.33;6.63;;;5.00;99.90;;;;;;4975924;28;20281;-88
2021/01/18 08:39:54;;;;;;;28.10;8.03;;;4.90;99.90;;;;;;4959863;28;20182;-88
2021/01/18 08:42:27;;;;;;;22.17;7.63;;;5.00;99.90;;;;;;4942273;28;20193;-89
2021/01/18 08:45:09;;;;;;;16.77;6.40;;;5.10;99.90;;;;;;4977085;28;20183;-88
2021/01/18 08:47:51;;;;;;;29.13;8.00;;;5.20;99.90;;;;;;4978928;28;20637;-88
2021/01/18 08:50:19;;;;;;;27.17;7.50;;;5.30;99.90;;;;;;4978983;28;20646;-88
2021/01/18 08:52:46;;;;;;;22.17;7.33;;;5.50;99.90;;;;;;4978665;28;20185;-88
2021/01/18 08:55:30;;;;;;;16.70;6.93;;;5.60;99.90;;;;;;4995904;28;20244;-87
2021/01/18 08:57:55;;;;;;;18.07;6.33;;;5.90;99.90;;;;;;4978509;28;20204;-88
2021/01/18 09:00:22;;;;;;;16.13;6.27;;;5.90;99.90;;;;;;4978638;28;20642;-88
2021/01/18 09:02:49;;;;;;;23.10;6.60;;;6.20;99.90;;;;;;4978534;28;20189;-88
2021/01/18 09:05:22;;;;;;;27.10;7.20;;;6.40;99.90;;;;;;4978599;28;20264;-87
2021/01/18 09:07:49;;;;;;;27.67;6.83;;;6.50;99.90;;;;;;4962336;28;20206;-88
2021/01/18 09:10:20;;;;;;;23.37;6.90;;;6.50;99.90;;;;;;4962470;28;20202;-88
2021/01/18 09:12:48;;;;;;;22.90;6.47;;;6.40;99.90;;;;;;4967354;28;20186;-88
2021/01/18 09:15:16;;;;;;;21.67;6.17;;;6.30;99.90;;;;;;4978736;28;20188;-87
2021/01/18 09:17:41;;;;;;;25.57;6.53;;;6.20;99.90;;;;;;4967615;28;20186;-88
2021/01/18 09:20:11;;;;;;;20.57;6.73;;;6.20;99.90;;;;;;4955411;28;20258;-89
2021/01/18 09:22:40;;;;;;;21.83;5.90;;;6.10;99.90;;;;;;4986715;28;20197;-86
2021/01/18 09:25:07;;;;;;;12.67;5.60;;;6.20;99.90;;;;;;5002324;28;20190;-88
2021/01/18 09:27:34;;;;;;;23.40;5.97;;;6.20;99.90;;;;;;4971973;28;20685;-88
2021/01/18 09:30:07;;;;;;;23.10;5.63;;;6.30;99.90;;;;;;4978486;28;20205;-88
2021/01/18 09:32:33;;;;;;;21.47;5.70;;;6.40;99.90;;;;;;4939038;29;20214;-89
2021/01/18 09:35:11;;;;;;;13.87;5.50;;;6.60;99.90;;;;;;4954702;28;20183;-87
2021/01/18 09:37:45;;;;;;;26.13;5.30;;;6.90;99.90;;;;;;4962129;29;20258;-88
2021/01/18 09:40:15;;;;;;;27.83;5.60;;;7.50;99.90;;;;;;4973902;29;20191;-91
2021/01/18 09:42:41;;;;;;;21.07;5.20;;;7.80;99.90;;;;;;4977604;28;20175;-89
2021/01/18 09:45:09;;;;;;;18.07;5.13;;;8.20;99.90;;;;;;4955031;29;20270;-87
2021/01/18 09:47:35;;;;;;;13.37;5.43;;;8.30;99.90;;;;;;4955182;29;20183;-88
2021/01/18 09:50:15;;;;;;;17.20;4.90;;;8.20;99.90;;;;;;4954806;29;20218;-87
2021/01/18 09:52:41;;;;;;;21.10;5.43;;;8.00;99.90;;;;;;4957959;29;20190;-88
2021/01/18 09:55:11;;;;;;;16.77;5.23;;;7.70;99.90;;;;;;4954015;29;20191;-88
2021/01/18 09:57:41;;;;;;;19.80;5.30;;;7.40;99.90;;;;;;4953603;29;20182;-89
2021/01/18 10:00:09;;;;;;;13.17;5.00;;;7.30;99.90;;;;;;4953692;29;20598;-88
2021/01/18 10:02:43;;;;;;;18.93;6.13;;;7.30;99.90;;;;;;4958398;28;20210;-87
2021/01/18 10:05:13;;;;;;;18.23;4.80;;;7.20;99.90;;;;;;4976637;28;20172;-87
2021/01/18 10:07:45;;;;;;;17.27;5.80;;;7.20;99.90;;;;;;4972095;28;20296;-87
2021/01/18 10:10:11;;;;;;;17.80;5.10;;;7.30;99.90;;;;;;4977721;28;20210;-88
2021/01/18 10:12:38;;;;;;;16.07;5.87;;;7.40;99.90;;;;;;4977319;28;20185;-88
2021/01/18 10:15:05;;;;;;;16.93;5.93;;;7.40;99.90;;;;;;4961547;28;20181;-87
2021/01/18 10:17:31;;;;;;;17.17;5.00;;;7.70;99.90;;;;;;4977926;28;20280;-88
2021/01/18 10:20:05;;;;;;;15.20;4.77;;;7.80;99.90;;;;;;4962398;28;20197;-88
2021/01/18 10:22:36;;;;;;;19.50;5.90;;;7.70;99.90;;;;;;4977818;28;20181;-88
2021/01/18 10:25:10;;;;;;;20.87;5.37;;;7.70;99.90;;;;;;4979388;28;20645;-89
2021/01/18 10:27:36;;;;;;;16.37;5.53;;;7.80;99.90;;;;;;4981586;28;20181;-88
2021/01/18 10:30:20;;;;;;;16.47;5.47;;;8.00;99.90;;;;;;4981473;28;20197;-88
2021/01/18 10:32:50;;;;;;;17.67;6.07;;;8.40;99.90;;;;;;5000020;28;20174;-88
2021/01/18 10:35:26;;;;;;;15.27;5.20;;;8.50;99.90;;;;;;4982428;28;20212;-90
2021/01/18 10:37:52;;;;;;;18.17;5.73;;;8.70;99.90;;;;;;4984531;28;20281;-89
2021/01/18 10:40:22;;;;;;;11.93;5.63;;;8.90;99.90;;;;;;4985228;28;20637;-89
2021/01/18 10:42:51;;;;;;;22.67;5.97;;;9.10;99.90;;;;;;4985331;28;20200;-89
2021/01/18 10:45:19;;;;;;;15.47;4.97;;;9.00;99.90;;;;;;4983563;28;20182;-88
2021/01/18 10:47:59;;;;;;;18.03;5.53;;;8.90;99.90;;;;;;4985265;28;20182;-88
2021/01/18 10:50:28;;;;;;;18.27;5.23;;;9.00;99.90;;;;;;5001713;28;20243;-85
2021/01/18 10:53:25;;;;;;;16.00;5.87;;;9.20;99.90;;;;;;4967251;28;20247;-87
2021/01/18 10:55:51;;;;;;;21.77;5.87;;;9.30;99.90;;;;;;4999184;28;20192;-86
2021/01/18 10:58:27;;;;;;;22.87;7.23;;;9.20;99.90;;;;;;4982509;28;20193;-87
2021/01/18 11:00:52;;;;;;;24.00;6.70;;;9.00;99.90;;;;;;4982982;28;20638;-87
2021/01/18 11:03:23;;;;;;;22.47;6.00;;;9.00;99.90;;;;;;4967560;28;20192;-87
2021/01/18 11:05:51;;;;;;;22.03;5.67;;;9.00;99.90;;;;;;4983691;28;20236;-87
2021/01/18 11:08:17;;;;;;;15.90;5.70;;;8.80;99.90;;;;;;4982217;28;20646;-87
2021/01/18 11:10:43;;;;;;;19.93;5.47;;;8.70;99.90;;;;;;4969637;28;20205;-87
2021/01/18 11:13:11;;;;;;;21.40;5.83;;;8.80;99.90;;;;;;4992539;28;20250;-87
2021/01/18 11:15:42;;;;;;;29.77;7.00;;;8.90;99.90;;;;;;4983339;28;20204;-88
2021/01/18 11:18:10;;;;;;;17.90;6.10;;;8.90;99.90;;;;;;4983107;28;20181;-88
2021/01/18 11:20:37;;;;;;;17.30;6.03;;;9.50;99.90;;;;;;4970597;28;20284;-88
2021/01/18 11:23:09;;;;;;;16.73;5.73;;;9.90;99.90;;;;;;4989001;28;20177;-87
2021/01/18 11:25:37;;;;;;;17.10;5.15;;;10.50;99.90;;;;;;4970416;28;20216;-87
2021/01/18 11:28:21;;;;;;;18.30;5.95;;;11.00;99.90;;;;;;4970151;28;20286;-87
2021/01/18 11:30:47;;;;;;;25.92;6.70;;;11.30;99.90;;;;;;4980823;28;20744;-88
2021/01/18 11:33:13;;;;;;;20.00;6.03;;;12.00;99.90;;;;;;4980217;28;20189;-87
2021/01/18 11:35:41;;;;;;;13.48;6.07;;;12.60;99.90;;;;;;4980055;28;20247;-88
2021/01/18 11:38:08;;;;;;;15.57;5.13;;;12.30;99.90;;;;;;4980450;28;20217;-88
2021/01/18 11:40:33;;;;;;;18.52;6.28;;;12.00;99.90;;;;;;4981250;28;20193;-87
2021/01/18 11:42:59;;;;;;;18.58;5.50;;;12.20;99.90;;;;;;4964648;28;20188;-89
2021/01/18 11:45:26;;;;;;;25.35;6.43;;;12.00;99.90;;;;;;4981233;28;20212;-87
2021/01/18 11:47:52;;;;;;;13.80;5.63;;;12.10;99.90;;;;;;4968937;28;20182;-87
2021/01/18 11:50:18;;;;;;;13.77;4.88;;;11.50;99.90;;;;;;4997489;28;20220;-86
2021/01/18 11:52:45;;;;;;;17.63;5.75;;;10.80;99.90;;;;;;5001834;28;20212;-89
2021/01/18 11:55:15;;;;;;;20.15;5.70;;;10.20;99.90;;;;;;5015666;28;20531;-86
2021/01/18 11:57:42;;;;;;;11.80;4.82;;;9.90;99.90;;;;;;4979936;28;20181;-86
2021/01/18 12:00:08;;;;;;;15.43;5.80;;;9.50;99.90;;;;;;4963871;28;20201;-86
2021/01/18 12:02:34;;;;;;;25.27;6.00;;;9.20;99.90;;;;;;4979709;28;20181;-87
2021/01/18 12:04:59;;;;;;;16.77;6.68;;;9.00;99.90;;;;;;4963625;28;20191;-87
2021/01/18 12:07:25;;;;;;;27.80;7.30;;;9.00;99.90;;;;;;4996522;28;20193;-91
2021/01/18 12:09:51;;;;;;;18.77;6.57;;;8.80;99.90;;;;;;5001808;28;20231;-88
2021/01/18 12:12:16;;;;;;;17.53;6.43;;;8.60;99.90;;;;;;4995400;28;20264;-87
2021/01/18 12:14:42;;;;;;;27.60;6.77;;;8.60;99.90;;;;;;4963541;28;20208;-86
2021/01/18 12:17:08;;;;;;;13.10;6.37;;;8.40;99.90;;;;;;4979514;28;20642;-87
2021/01/18 12:19:33;;;;;;;15.20;5.73;;;8.30;99.90;;;;;;4978965;28;20193;-87
2021/01/18 12:21:59;;;;;;;16.63;5.63;;;8.20;99.90;;;;;;4979302;28;20196;-87
2021/01/18 12:24:25;;;;;;;16.23;6.13;;;8.20;99.90;;;;;;4979212;28;20618;-89
2021/01/18 12:26:53;;;;;;;11.37;5.87;;;8.20;99.90;;;;;;4963686;28;20189;-88
2021/01/18 12:29:18;;;;;;;19.97;7.00;;;8.10;99.90;;;;;;4996626;28;20558;-86
2021/01/18 12:31:44;;;;;;;20.43;7.33;;;8.30;99.90;;;;;;4962799;28;20190;-87
2021/01/18 12:34:10;;;;;;;19.50;6.70;;;8.30;99.90;;;;;;4979143;28;20182;-87
2021/01/18 12:36:36;;;;;;;11.67;6.37;;;8.20;99.90;;;;;;4978639;28;20184;-86
2021/01/18 12:39:04;;;;;;;12.87;6.63;;;8.20;99.90;;;;;;4962985;28;20185;-89
2021/01/18 12:41:32;;;;;;;18.53;6.40;;;8.10;99.90;;;;;;4979248;28;20174;-87
2021/01/18 12:44:00;;;;;;;22.30;6.70;;;8.20;99.90;;;;;;4978993;28;20186;-87
2021/01/18 12:46:28;;;;;;;19.33;7.03;;;8.40;99.90;;;;;;4979472;28;20268;-89
2021/01/18 12:48:56;;;;;;;24.90;6.67;;;8.60;99.90;;;;;;4963417;28;20185;-87
2021/01/18 12:51:22;;;;;;;20.97;7.53;;;8.70;99.90;;;;;;4997089;28;20189;-88
2021/01/18 12:53:48;;;;;;;18.83;6.40;;;8.70;99.90;;;;;;4996367;28;20181;-89
2021/01/18 12:56:28;;;;;;;15.50;6.33;;;8.70;99.90;;;;;;4979065;28;20201;-88
2021/01/18 12:58:55;;;;;;;11.97;6.00;;;8.90;99.90;;;;;;4979169;28;20177;-89
2021/01/18 13:01:56;;;;;;;19.30;7.57;;;9.10;99.90;;;;;;4979088;28;20178;-87
2021/01/18 13:04:21;;;;;;;21.30;6.20;;;9.20;99.90;;;;;;4979311;28;20172;-89
2021/01/18 13:06:49;;;;;;;15.40;6.53;;;9.10;99.90;;;;;;4980764;28;20201;-89
2021/01/18 13:09:20;;;;;;;15.03;5.63;;;9.00;99.90;;;;;;4980845;28;20275;-90